Portada
METAR-TAF:

METAR-TAF

Aeroports :

Magnitogorsk, Rússia

latitud: 53-23-36N, longitud: 058-45-24E, altitud: 436 m

Observació

L'informe es va fer fa 32 minuts, a les 00:30 UTC
Vent 2 kt del Est/Nord-Est
Temperatura 19°C
Humitat 83%
Pressió 1012 hPa
Visibilitat 10 km o més
Cel ennuvolat a una alçada de 2000 ft, Cumulonimbus.

METAR: USCM 200030Z 06001MPS 9999 BKN020CB 19/16 Q1012 R18/190160 TEMPO -TSRA BKN010CB RMK QFE721

Hora: 06:02 (01:02 UTC)

Pronòstic

L'informe es va fer fa 2 hores i 2 minuts, a les 23:00 UTC
Pronòstic vàlid del 20 a les 00 UTC al 20 a les 09 UTC
Vent 6 kt del Sud-Oest amb ràfegues de 19 kt
Visibilitat 10 km o més
Núvols disperses a una alçada de 3000 ft, Cumulonimbus.
Temporalment
l' 20 a les 00 UTC al 20 a les 09 UTC
Vent 29 kt amb direcció variable
Visibilitat: 5000 m
Cel ennuvolat a una alçada de 1500 ft, Cumulonimbus.
tempesta, pluja, torbonada

TAF: USCM 192300Z 2000/2009 22003G10MPS 9999 SCT030CB TEMPO 2000/2009 VRB15MPS 5000 -TSRA SQ BKN015CB

Observacions i pronòstics meteorològics de més de 4000 aeroports (METAR i TAF).

Les estacions disponibles són els punts grocs i vermells al mapa.

Posi el ratolí al punt desitjat per veure el nom de l'estació.

Feu clic per veure les observacions i els pronòstics meteorològics.

Per canviar el mapa: feu clic els botons verds amb una creu de color negre per apropar; al botó verd amb un guió per allunyar la imatge; o en les fletxes verdes per a mapes adjacents.


METAR-TAF: